createdAt,value
2022-09-23T00:00:13.719Z,100940.06
2022-09-23T00:01:15.962Z,100936.72
2022-09-23T00:02:18.189Z,100943.25
2022-09-23T00:03:20.847Z,100946.00
2022-09-23T00:04:22.984Z,100939.88
2022-09-23T00:05:25.488Z,100933.78
2022-09-23T00:06:30.230Z,100938.41
2022-09-23T00:07:32.384Z,100936.75
2022-09-23T00:08:34.564Z,100934.22
2022-09-23T00:09:36.764Z,100938.03
2022-09-23T00:10:40.449Z,100930.00
2022-09-23T00:11:42.580Z,100931.09
2022-09-23T00:12:44.731Z,100933.22
2022-09-23T00:13:49.550Z,100932.38
2022-09-23T00:14:51.719Z,100929.00
2022-09-23T00:15:53.856Z,100930.91
2022-09-23T00:16:56.048Z,100923.97
2022-09-23T00:17:58.329Z,100924.78
2022-09-23T00:19:04.757Z,100925.84
2022-09-23T00:20:09.447Z,100930.50
2022-09-23T00:21:14.951Z,100929.88
2022-09-23T00:22:17.215Z,100927.13
2022-09-23T00:23:19.354Z,100929.03
2022-09-23T00:24:21.525Z,100920.81
2022-09-23T00:25:23.659Z,100918.28
2022-09-23T00:26:25.811Z,100922.91
2022-09-23T00:27:29.219Z,100916.59
2022-09-23T00:28:32.122Z,100922.09
2022-09-23T00:29:34.299Z,100915.13
2022-09-23T00:30:38.709Z,100917.06
2022-09-23T00:31:40.857Z,100918.94
2022-09-23T00:32:43.033Z,100921.47
2022-09-23T00:33:45.205Z,100919.78
2022-09-23T00:34:48.095Z,100918.94
2022-09-23T00:35:52.536Z,100917.25
2022-09-23T00:36:54.687Z,100914.50
2022-09-23T00:37:56.856Z,100914.13
2022-09-23T00:38:59.212Z,100917.69
2022-09-23T00:40:02.669Z,100915.78
2022-09-23T00:41:06.451Z,100914.13
2022-09-23T00:42:16.430Z,100913.25
2022-09-23T00:43:18.795Z,100917.28
2022-09-23T00:44:44.782Z,100910.97
2022-09-23T00:45:49.771Z,100916.47
2022-09-23T00:46:52.426Z,100918.34
2022-09-23T00:48:05.385Z,100914.78
2022-09-23T00:49:33.232Z,100920.50
2022-09-23T00:50:42.943Z,100915.00
2022-09-23T00:51:54.559Z,100912.47
2022-09-23T00:52:59.646Z,100918.81
2022-09-23T00:54:03.121Z,100915.41
2022-09-23T00:55:10.612Z,100909.94
2022-09-23T00:56:14.128Z,100913.53
2022-09-23T00:57:20.073Z,100907.19
2022-09-23T00:58:28.081Z,100909.94
2022-09-23T00:59:30.210Z,100909.09
2022-09-23T01:00:33.792Z,100911.00
2022-09-23T01:01:37.591Z,100916.50
2022-09-23T01:02:40.163Z,100910.16
2022-09-23T01:03:45.419Z,100912.91
2022-09-23T01:04:50.501Z,100906.59
2022-09-23T01:05:53.210Z,100913.13
2022-09-23T01:06:55.336Z,100910.38
2022-09-23T01:07:59.222Z,100907.63
2022-09-23T01:09:03.707Z,100911.66
2022-09-23T01:10:15.352Z,100901.50
2022-09-23T01:11:38.260Z,100904.25
2022-09-23T01:12:58.590Z,100900.91
2022-09-23T01:14:17.114Z,100894.56
2022-09-23T01:15:24.739Z,100892.69
2022-09-23T01:16:58.773Z,100890.97
2022-09-23T01:18:20.661Z,100895.66
2022-09-23T01:19:52.144Z,100884.91
2022-09-23T01:21:16.724Z,100896.06
2022-09-23T01:22:36.334Z,100897.16
2022-09-23T01:24:15.375Z,100890.81
2022-09-23T01:25:44.392Z,100886.59
2022-09-23T01:27:11.396Z,100879.63
2022-09-23T01:28:49.068Z,100881.56
2022-09-23T01:29:58.419Z,100883.44
2022-09-23T01:31:25.769Z,100880.91
2022-09-23T01:32:52.532Z,100886.63
2022-09-23T01:34:03.136Z,100883.06
2022-09-23T01:35:30.874Z,100880.50
2022-09-23T01:36:46.618Z,100880.75
2022-09-23T01:38:26.182Z,100876.31
2022-09-23T01:39:53.604Z,100889.19
2022-09-23T01:41:33.409Z,100876.75
2022-09-23T01:42:39.628Z,100881.19
2022-09-23T01:44:03.399Z,100884.16
2022-09-23T01:45:14.369Z,100876.75
2022-09-23T01:46:28.103Z,100874.22
2022-09-23T01:47:37.611Z,100882.69
2022-09-23T01:49:08.295Z,100872.75
2022-09-23T01:50:40.296Z,100868.34
2022-09-23T01:51:48.277Z,100864.75
2022-09-23T01:52:56.189Z,100867.72
2022-09-23T01:54:12.531Z,100867.72
2022-09-23T01:55:24.875Z,100864.13
2022-09-23T01:56:42.830Z,100861.38
2022-09-23T01:57:54.148Z,100858.63
2022-09-23T01:59:09.449Z,100862.44
2022-09-23T02:00:17.514Z,100871.75
2022-09-23T02:01:28.958Z,100863.72
2022-09-23T02:02:36.107Z,100862.06
2022-09-23T02:04:04.238Z,100859.50
2022-09-23T02:05:19.235Z,100866.69
2022-09-23T02:06:27.425Z,100870.47
2022-09-23T02:07:39.767Z,100855.94
2022-09-23T02:08:47.021Z,100865.00
2022-09-23T02:09:59.407Z,100861.66
2022-09-23T02:11:10.849Z,100859.97
2022-09-23T02:12:19.202Z,100859.13
2022-09-23T02:13:30.078Z,100861.00
2022-09-23T02:16:03.670Z,100860.41
2022-09-23T02:17:17.558Z,100854.91
2022-09-23T02:18:24.853Z,100858.72
2022-09-23T02:19:48.512Z,100862.28
2022-09-23T02:21:01.126Z,100855.09
2022-09-23T02:22:08.139Z,100859.16
2022-09-23T02:23:30.226Z,100860.59
2022-09-23T02:24:36.222Z,100851.13
2022-09-23T02:26:20.356Z,100844.81
2022-09-23T02:27:44.339Z,100851.34
2022-09-23T02:29:01.516Z,100850.53
2022-09-23T02:30:03.664Z,100848.81
2022-09-23T02:31:16.943Z,100846.09
2022-09-23T02:32:40.275Z,100841.66
2022-09-23T02:34:22.026Z,100847.38
2022-09-23T02:35:33.305Z,100845.66
2022-09-23T02:36:46.864Z,100842.09
2022-09-23T02:38:00.082Z,100841.25
2022-09-23T02:39:11.328Z,100845.25
2022-09-23T02:40:23.655Z,100841.69
2022-09-23T02:41:29.375Z,100841.91
2022-09-23T02:42:45.293Z,100838.31
2022-09-23T02:44:02.862Z,100835.56
2022-09-23T02:45:05.799Z,100844.88
2022-09-23T02:46:08.403Z,100832.44
2022-09-23T02:47:11.079Z,100833.50
2022-09-23T02:48:26.888Z,100836.22
2022-09-23T02:49:31.402Z,100835.38
2022-09-23T02:50:34.056Z,100830.97
2022-09-23T02:51:40.544Z,100832.84
2022-09-23T02:52:43.046Z,100825.69
2022-09-23T02:53:46.704Z,100825.91
2022-09-23T02:54:48.946Z,100828.66
2022-09-23T02:55:51.194Z,100825.91
2022-09-23T02:56:53.830Z,100834.13
2022-09-23T02:57:56.346Z,100830.56
2022-09-23T02:58:58.585Z,100830.78
2022-09-23T03:00:02.283Z,100825.31
2022-09-23T03:01:22.056Z,100823.38
2022-09-23T03:02:51.210Z,100824.66
2022-09-23T03:04:05.196Z,100821.09
2022-09-23T03:05:24.948Z,100832.06
2022-09-23T03:06:45.960Z,100821.31
2022-09-23T03:08:06.643Z,100816.88
2022-09-23T03:09:15.206Z,100819.84
2022-09-23T03:10:38.637Z,100823.41
2022-09-23T03:11:47.109Z,100822.78
2022-09-23T03:13:19.499Z,100824.06
2022-09-23T03:14:58.593Z,100810.56
2022-09-23T03:16:23.350Z,100817.09
2022-09-23T03:17:39.830Z,100813.31
2022-09-23T03:18:58.154Z,100809.97
2022-09-23T03:20:45.204Z,100808.28
2022-09-23T03:22:02.326Z,100802.78
2022-09-23T03:23:09.252Z,100809.31
2022-09-23T03:24:14.499Z,100809.31
2022-09-23T03:25:25.117Z,100803.22
2022-09-23T03:26:39.901Z,100803.22
2022-09-23T03:27:43.590Z,100805.34
2022-09-23T03:28:46.408Z,100796.28
2022-09-23T03:29:50.993Z,100800.09
2022-09-23T03:30:54.569Z,100805.56
2022-09-23T03:31:57.576Z,100801.97
2022-09-23T03:33:01.203Z,100802.81
2022-09-23T03:34:09.083Z,100807.44
2022-09-23T03:35:13.277Z,100800.31
2022-09-23T03:36:39.593Z,100803.22
2022-09-23T03:37:47.871Z,100799.66
2022-09-23T03:38:54.713Z,100794.19
2022-09-23T03:40:21.113Z,100791.66
2022-09-23T03:41:45.817Z,100798.59
2022-09-23T03:42:49.203Z,100788.91
2022-09-23T03:43:53.393Z,100784.28
2022-09-23T03:44:57.438Z,100794.63
2022-09-23T03:46:01.475Z,100793.53
2022-09-23T03:47:04.527Z,100791.88
2022-09-23T03:48:07.290Z,100790.19
2022-09-23T03:49:18.329Z,100794.81
2022-09-23T03:50:21.429Z,100790.41
2022-09-23T03:51:24.167Z,100800.28
2022-09-23T03:52:26.773Z,100795.03
2022-09-23T03:53:31.901Z,100785.13
2022-09-23T03:54:34.501Z,100791.47
2022-09-23T03:55:39.472Z,100785.13
2022-09-23T03:56:44.174Z,100790.59
2022-09-23T03:57:46.490Z,100787.03
2022-09-23T03:58:48.983Z,100793.56
2022-09-23T03:59:52.404Z,100796.31
2022-09-23T04:00:54.882Z,100792.97
2022-09-23T04:01:59.662Z,100795.69
2022-09-23T04:03:02.151Z,100794.84
2022-09-23T04:04:07.534Z,100792.09
2022-09-23T04:05:11.836Z,100799.50
2022-09-23T04:06:14.021Z,100790.41
2022-09-23T04:07:18.721Z,100797.56
2022-09-23T04:08:20.839Z,100790.41
2022-09-23T04:09:23.957Z,100786.00
2022-09-23T04:10:26.096Z,100788.94
2022-09-23T04:11:29.094Z,100780.72
2022-09-23T04:12:31.325Z,100781.81
2022-09-23T04:13:33.800Z,100779.28
2022-09-23T04:14:35.932Z,100781.16
2022-09-23T04:15:38.488Z,100787.69
2022-09-23T04:16:40.771Z,100781.38
2022-09-23T04:17:43.056Z,100774.00
2022-09-23T04:18:45.287Z,100776.72
2022-09-23T04:19:47.451Z,100771.25
2022-09-23T04:20:49.968Z,100776.72
2022-09-23T04:21:52.148Z,100777.81
2022-09-23T04:22:54.316Z,100773.34
2022-09-23T04:23:56.469Z,100772.72
2022-09-23T04:24:58.747Z,100770.84
2022-09-23T04:26:00.901Z,100769.97
2022-09-23T04:27:03.565Z,100772.72
2022-09-23T04:28:05.700Z,100769.16
2022-09-23T04:29:11.373Z,100777.38
2022-09-23T04:30:13.923Z,100769.16
2022-09-23T04:31:16.164Z,100766.63
2022-09-23T04:32:19.019Z,100769.38
2022-09-23T04:33:21.165Z,100767.69
2022-09-23T04:34:23.631Z,100775.91
2022-09-23T04:35:25.814Z,100770.63
2022-09-23T04:36:29.277Z,100776.94
2022-09-23T04:37:31.543Z,100767.91
2022-09-23T04:38:33.902Z,100775.03
2022-09-23T04:39:36.039Z,100768.72
2022-09-23T04:40:38.449Z,100773.38
2022-09-23T04:41:41.973Z,100773.38
2022-09-23T04:42:44.189Z,100769.78
2022-09-23T04:43:48.606Z,100768.94
2022-09-23T04:44:50.840Z,100773.78
2022-09-23T04:46:04.928Z,100768.31
2022-09-23T04:47:07.299Z,100772.09
2022-09-23T04:48:11.386Z,100767.47
2022-09-23T04:49:15.834Z,100767.69
2022-09-23T04:50:20.436Z,100765.78
2022-09-23T04:51:24.911Z,100766.63
2022-09-23T04:52:27.469Z,100768.53
2022-09-23T04:53:29.715Z,100764.09
2022-09-23T04:54:33.002Z,100762.41
2022-09-23T04:55:35.164Z,100755.28
2022-09-23T04:56:37.389Z,100762.41
2022-09-23T04:57:39.543Z,100753.59
2022-09-23T04:58:43.411Z,100766.22
2022-09-23T04:59:47.213Z,100768.09
2022-09-23T05:00:49.565Z,100764.31
2022-09-23T05:01:55.474Z,100756.09
2022-09-23T05:02:57.697Z,100759.88
2022-09-23T05:04:05.990Z,100760.75
2022-09-23T05:05:08.383Z,100759.88
2022-09-23T05:06:13.842Z,100764.53
2022-09-23T05:07:18.435Z,100762.63
2022-09-23T05:08:23.684Z,100769.16
2022-09-23T05:09:25.872Z,100759.06
2022-09-23T05:10:28.223Z,100764.53
2022-09-23T05:11:31.683Z,100759.28
2022-09-23T05:12:34.117Z,100758.19
2022-09-23T05:13:36.283Z,100756.31
2022-09-23T05:14:41.466Z,100758.19
2022-09-23T05:15:43.623Z,100759.28
2022-09-23T05:16:45.757Z,100761.16
2022-09-23T05:17:57.681Z,100762.03
2022-09-23T05:18:59.954Z,100762.03
2022-09-23T05:20:03.550Z,100760.94
2022-09-23T05:21:05.855Z,100762.84
2022-09-23T05:22:08.075Z,100765.81
2022-09-23T05:23:10.255Z,100770.22
2022-09-23T05:24:12.624Z,100762.84
2022-09-23T05:25:15.053Z,100767.50
2022-09-23T05:26:17.209Z,100767.69
2022-09-23T05:27:22.369Z,100769.16
2022-09-23T05:28:31.410Z,100766.41
2022-09-23T05:29:34.819Z,100771.72
2022-09-23T05:30:36.953Z,100771.72
2022-09-23T05:31:39.137Z,100766.84
2022-09-23T05:32:42.111Z,100772.31
2022-09-23T05:33:46.791Z,100773.19
2022-09-23T05:34:55.298Z,100773.78
2022-09-23T05:35:57.475Z,100777.38
2022-09-23T05:36:59.713Z,100774.44
2022-09-23T05:38:01.861Z,100774.22
2022-09-23T05:39:04.935Z,100770.63
2022-09-23T05:40:07.465Z,100772.09
2022-09-23T05:41:12.451Z,100774.63
2022-09-23T05:42:16.304Z,100771.47
2022-09-23T05:43:18.440Z,100775.69
2022-09-23T05:44:20.561Z,100770.63
2022-09-23T05:45:22.817Z,100766.38
2022-09-23T05:46:32.336Z,100771.22
2022-09-23T05:47:34.498Z,100771.63
2022-09-23T05:48:37.758Z,100773.72
2022-09-23T05:49:58.593Z,100770.13
2022-09-23T05:51:04.839Z,100763.75
2022-09-23T05:52:07.100Z,100770.88
2022-09-23T05:53:09.287Z,100768.97
2022-09-23T05:54:11.684Z,100770.84
2022-09-23T05:55:13.825Z,100767.00
2022-09-23T05:56:18.376Z,100768.66
2022-09-23T05:57:21.660Z,100769.44
2022-09-23T05:58:24.286Z,100770.84
2022-09-23T05:59:26.483Z,100765.09
2022-09-23T06:00:30.964Z,100766.53
2022-09-23T06:01:35.491Z,100766.03
2022-09-23T06:02:37.830Z,100765.75
2022-09-23T06:03:40.980Z,100761.44
2022-09-23T06:04:44.001Z,100768.56
2022-09-23T06:05:49.519Z,100764.47
2022-09-23T06:06:51.629Z,100767.53
2022-09-23T06:07:53.846Z,100770.81
2022-09-23T06:08:56.771Z,100762.69
2022-09-23T06:09:59.001Z,100757.75
2022-09-23T06:11:08.167Z,100757.81
2022-09-23T06:12:10.301Z,100762.78
2022-09-23T06:13:12.864Z,100760.34
2022-09-23T06:14:15.120Z,100771.41
2022-09-23T06:15:17.553Z,100757.09
2022-09-23T06:16:20.114Z,100767.09
2022-09-23T06:17:22.269Z,100762.94
2022-09-23T06:18:24.426Z,100769.34
2022-09-23T06:19:26.549Z,100755.63
2022-09-23T06:20:28.786Z,100761.16
2022-09-23T06:21:31.697Z,100760.59
2022-09-23T06:22:39.335Z,100764.44
2022-09-23T06:23:44.001Z,100763.63
2022-09-23T06:24:46.137Z,100759.19
2022-09-23T06:25:48.496Z,100758.59
2022-09-23T06:26:50.712Z,100762.47
2022-09-23T06:27:54.534Z,100758.84
2022-09-23T06:28:57.352Z,100759.09
2022-09-23T06:29:59.925Z,100758.47
2022-09-23T06:31:06.088Z,100764.47
2022-09-23T06:32:10.786Z,100764.66
2022-09-23T06:33:14.909Z,100760.47
2022-09-23T06:34:17.496Z,100758.16
2022-09-23T06:35:26.862Z,100766.06
2022-09-23T06:36:41.245Z,100752.47
2022-09-23T06:37:45.252Z,100756.84
2022-09-23T06:38:49.841Z,100756.19
2022-09-23T06:39:54.782Z,100763.81
2022-09-23T06:40:58.279Z,100753.84
2022-09-23T06:42:00.428Z,100748.25
2022-09-23T06:43:02.663Z,100761.16
2022-09-23T06:44:04.961Z,100758.59
2022-09-23T06:45:13.197Z,100763.75
2022-09-23T06:46:17.353Z,100755.63
2022-09-23T06:47:19.527Z,100758.56
2022-09-23T06:48:22.743Z,100758.72
2022-09-23T06:49:24.968Z,100763.28
2022-09-23T06:50:28.167Z,100762.34
2022-09-23T06:51:30.283Z,100758.03
2022-09-23T06:52:33.122Z,100759.03
2022-09-23T06:53:35.689Z,100748.38
2022-09-23T06:54:38.490Z,100748.50
2022-09-23T06:55:41.414Z,100748.34
2022-09-23T06:56:47.544Z,100748.47
2022-09-23T06:57:49.739Z,100748.84
2022-09-23T06:58:52.586Z,100754.50
2022-09-23T06:59:54.750Z,100756.78
2022-09-23T07:01:10.762Z,100749.41
2022-09-23T07:02:13.456Z,100753.63
2022-09-23T07:03:15.822Z,100749.28
2022-09-23T07:04:18.005Z,100750.47
2022-09-23T07:05:22.409Z,100759.41
2022-09-23T07:06:24.644Z,100746.22
2022-09-23T07:07:31.431Z,100748.50
2022-09-23T07:08:35.015Z,100748.25
2022-09-23T07:09:37.770Z,100748.88
2022-09-23T07:10:40.943Z,100753.91
2022-09-23T07:11:43.120Z,100751.47
2022-09-23T07:12:45.390Z,100753.47
2022-09-23T07:13:47.530Z,100750.44
2022-09-23T07:14:49.680Z,100760.19
2022-09-23T07:15:55.877Z,100750.81
2022-09-23T07:17:00.034Z,100746.41
2022-09-23T07:18:02.188Z,100751.44
2022-09-23T07:19:04.479Z,100746.47
2022-09-23T07:20:07.180Z,100751.50
2022-09-23T07:21:15.584Z,100751.03
2022-09-23T07:22:18.894Z,100747.72
2022-09-23T07:23:21.045Z,100747.16
2022-09-23T07:24:23.254Z,100748.28
2022-09-23T07:25:25.388Z,100747.78
2022-09-23T07:26:27.527Z,100743.88
2022-09-23T07:27:29.836Z,100748.91
2022-09-23T07:28:33.002Z,100755.59
2022-09-23T07:29:45.267Z,100758.38
2022-09-23T07:30:58.930Z,100749.75
2022-09-23T07:32:12.302Z,100756.72
2022-09-23T07:33:28.769Z,100758.38
2022-09-23T07:34:34.131Z,100748.91
2022-09-23T07:35:39.909Z,100752.28
2022-09-23T07:36:42.128Z,100748.66
2022-09-23T07:37:45.476Z,100753.94
2022-09-23T07:38:47.704Z,100751.41
2022-09-23T07:39:51.185Z,100743.06
2022-09-23T07:40:53.380Z,100749.72
2022-09-23T07:41:56.648Z,100751.94
2022-09-23T07:42:59.686Z,100746.88
2022-09-23T07:44:03.432Z,100754.94
2022-09-23T07:45:07.350Z,100747.94
2022-09-23T07:46:16.523Z,100748.22
2022-09-23T07:47:18.828Z,100750.16
2022-09-23T07:48:21.445Z,100748.16
2022-09-23T07:49:24.015Z,100745.88
2022-09-23T07:50:26.369Z,100747.56
2022-09-23T07:51:36.030Z,100741.16
2022-09-23T07:52:39.421Z,100737.22
2022-09-23T07:53:41.612Z,100742.19
2022-09-23T07:54:47.016Z,100747.16
2022-09-23T07:55:54.393Z,100748.50
2022-09-23T07:56:56.996Z,100745.38
2022-09-23T07:57:59.205Z,100741.16
2022-09-23T07:59:03.251Z,100750.84
2022-09-23T08:00:08.896Z,100741.84
2022-09-23T08:01:13.896Z,100751.84
2022-09-23T08:02:17.129Z,100746.78
2022-09-23T08:03:20.389Z,100747.28
2022-09-23T08:04:28.437Z,100748.63
2022-09-23T08:05:31.998Z,100747.16
2022-09-23T08:06:34.438Z,100753.53
2022-09-23T08:07:36.589Z,100756.00
2022-09-23T08:08:43.708Z,100757.31
2022-09-23T08:09:45.948Z,100750.53
2022-09-23T08:10:48.145Z,100751.59
2022-09-23T08:11:51.419Z,100747.94
2022-09-23T08:12:53.761Z,100744.50
2022-09-23T08:13:56.759Z,100751.38
2022-09-23T08:15:00.499Z,100748.25
2022-09-23T08:16:02.762Z,100743.13
2022-09-23T08:17:05.962Z,100749.19
2022-09-23T08:18:08.131Z,100748.88
2022-09-23T08:19:10.335Z,100744.59
2022-09-23T08:20:33.453Z,100752.31
2022-09-23T08:21:37.657Z,100741.56
2022-09-23T08:22:39.865Z,100740.38
2022-09-23T08:23:41.979Z,100741.97
2022-09-23T08:24:44.141Z,100744.38
2022-09-23T08:25:47.397Z,100746.28
2022-09-23T08:26:54.199Z,100742.28
2022-09-23T08:27:57.088Z,100745.84
2022-09-23T08:28:59.234Z,100746.88
2022-09-23T08:30:01.400Z,100744.53
2022-09-23T08:31:03.850Z,100736.06
2022-09-23T08:32:06.031Z,100739.09
2022-09-23T08:33:08.201Z,100734.25
2022-09-23T08:34:11.627Z,100731.38
2022-09-23T08:35:13.860Z,100732.16
2022-09-23T08:36:16.088Z,100740.16
2022-09-23T08:37:18.241Z,100736.41
2022-09-23T08:38:20.738Z,100729.59
2022-09-23T08:39:23.287Z,100731.50
2022-09-23T08:40:25.812Z,100733.66
2022-09-23T08:41:46.024Z,100727.97
2022-09-23T08:42:49.235Z,100724.78
2022-09-23T08:43:59.151Z,100727.16
2022-09-23T08:45:05.559Z,100728.75
2022-09-23T08:46:13.803Z,100727.81
2022-09-23T08:47:47.425Z,100722.94
2022-09-23T08:48:50.321Z,100720.59
2022-09-23T08:50:02.900Z,100726.63
2022-09-23T08:51:08.315Z,100724.03
2022-09-23T08:52:21.177Z,100718.81
2022-09-23T08:53:37.349Z,100718.44
2022-09-23T08:54:39.527Z,100722.75
2022-09-23T08:55:41.605Z,100716.22
2022-09-23T08:56:51.525Z,100711.03
2022-09-23T08:58:27.160Z,100720.16
2022-09-23T08:59:41.882Z,100716.13
2022-09-23T09:00:47.903Z,100714.66
2022-09-23T09:01:59.295Z,100714.50
2022-09-23T09:03:02.957Z,100707.97
2022-09-23T09:04:45.324Z,100706.41
2022-09-23T09:05:54.155Z,100707.44
2022-09-23T09:07:35.366Z,100708.47
2022-09-23T09:08:39.026Z,100700.78
2022-09-23T09:09:51.819Z,100695.88
2022-09-23T09:10:55.686Z,100695.22
2022-09-23T09:12:27.756Z,100692.63
2022-09-23T09:13:43.195Z,100706.53
2022-09-23T09:15:13.016Z,100690.72
2022-09-23T09:16:59.430Z,100690.59
2022-09-23T09:18:11.358Z,100695.56
2022-09-23T09:19:21.910Z,100693.78
2022-09-23T09:20:31.001Z,100695.44
2022-09-23T09:21:40.056Z,100695.63
2022-09-23T09:22:59.891Z,100698.63
2022-09-23T09:24:05.815Z,100693.53
2022-09-23T09:25:24.325Z,100693.88
2022-09-23T09:26:27.764Z,100695.75
2022-09-23T09:27:30.393Z,100694.28
2022-09-23T09:28:42.204Z,100693.28
2022-09-23T09:29:50.105Z,100683.09
2022-09-23T09:30:56.976Z,100696.19
2022-09-23T09:31:59.763Z,100695.03
2022-09-23T09:33:03.909Z,100693.25
2022-09-23T09:34:17.692Z,100690.63
2022-09-23T09:35:33.321Z,100686.81
2022-09-23T09:36:47.364Z,100681.06
2022-09-23T09:37:49.558Z,100677.63
2022-09-23T09:38:53.409Z,100685.06
2022-09-23T09:39:56.278Z,100676.03
2022-09-23T09:41:09.213Z,100687.91
2022-09-23T09:42:21.121Z,100684.63
2022-09-23T09:43:26.167Z,100682.00
2022-09-23T09:44:43.341Z,100673.44
2022-09-23T09:46:03.626Z,100680.88
2022-09-23T09:47:29.891Z,100674.63
2022-09-23T09:48:38.450Z,100681.72
2022-09-23T09:50:04.852Z,100665.91
2022-09-23T09:51:19.821Z,100670.88
2022-09-23T09:52:26.071Z,100663.75
2022-09-23T09:53:35.826Z,100669.22
2022-09-23T09:54:39.290Z,100666.91
2022-09-23T09:55:41.703Z,100667.94
2022-09-23T09:56:45.031Z,100663.63
2022-09-23T09:57:55.669Z,100661.31
2022-09-23T09:59:08.263Z,100656.19
2022-09-23T10:00:22.489Z,100651.56
2022-09-23T10:01:26.143Z,100650.06
2022-09-23T10:02:55.697Z,100654.72
2022-09-23T10:04:01.286Z,100656.84
2022-09-23T10:05:06.716Z,100650.56
2022-09-23T10:06:24.520Z,100657.16
2022-09-23T10:07:30.646Z,100646.09
2022-09-23T10:08:37.998Z,100646.59
2022-09-23T10:09:47.786Z,100648.25
2022-09-23T10:11:04.029Z,100650.41
2022-09-23T10:12:15.816Z,100650.06
2022-09-23T10:13:19.847Z,100655.34
2022-09-23T10:14:21.977Z,100648.56
2022-09-23T10:15:31.393Z,100650.22
2022-09-23T10:16:34.826Z,100643.47
2022-09-23T10:17:39.288Z,100647.91
2022-09-23T10:18:47.551Z,100642.59
2022-09-23T10:20:00.472Z,100641.78
2022-09-23T10:21:14.492Z,100646.28
2022-09-23T10:22:24.204Z,100640.94
2022-09-23T10:23:29.174Z,100644.09
2022-09-23T10:24:36.726Z,100641.63
2022-09-23T10:25:41.675Z,100639.97
2022-09-23T10:26:55.469Z,100637.81
2022-09-23T10:27:57.662Z,100640.13
2022-09-23T10:29:03.062Z,100635.19
2022-09-23T10:30:22.837Z,100638.97
2022-09-23T10:31:30.272Z,100636.66
2022-09-23T10:32:40.061Z,100636.81
2022-09-23T10:33:48.785Z,100626.94
2022-09-23T10:35:14.208Z,100632.19
2022-09-23T10:36:18.189Z,100629.06
2022-09-23T10:37:30.774Z,100625.25
2022-09-23T10:38:32.901Z,100627.38
2022-09-23T10:39:54.300Z,100630.66
2022-09-23T10:41:15.529Z,100625.19
2022-09-23T10:42:51.796Z,100623.06
2022-09-23T10:44:32.101Z,100626.00
2022-09-23T10:45:58.807Z,100628.47
2022-09-23T10:47:30.300Z,100624.81
2022-09-23T10:48:36.177Z,100616.84
2022-09-23T10:50:08.111Z,100615.03
2022-09-23T10:51:22.693Z,100615.50
2022-09-23T10:52:46.623Z,100614.31
2022-09-23T10:54:18.539Z,100617.06
2022-09-23T10:55:33.770Z,100610.25
2022-09-23T10:56:51.643Z,100611.56
2022-09-23T10:58:20.458Z,100607.38
2022-09-23T10:59:49.285Z,100605.84
2022-09-23T11:01:18.491Z,100604.47
2022-09-23T11:02:30.411Z,100605.22
2022-09-23T11:04:13.552Z,100605.69
2022-09-23T11:05:40.804Z,100602.00
2022-09-23T11:07:07.349Z,100605.25
2022-09-23T11:08:28.972Z,100598.44
2022-09-23T11:10:04.823Z,100594.41
2022-09-23T11:11:22.462Z,100596.81
2022-09-23T11:12:39.704Z,100594.97
2022-09-23T11:13:45.202Z,100594.28
2022-09-23T11:15:18.785Z,100586.81
2022-09-23T11:16:34.431Z,100592.72
2022-09-23T11:18:02.863Z,100591.72
2022-09-23T11:19:24.207Z,100592.31
2022-09-23T11:20:48.569Z,100587.38
2022-09-23T11:22:20.579Z,100584.03
2022-09-23T11:23:53.763Z,100577.63
2022-09-23T11:25:24.052Z,100582.41
2022-09-23T11:26:59.902Z,100571.50
2022-09-23T11:28:20.425Z,100577.09
2022-09-23T11:29:34.274Z,100569.53
2022-09-23T11:30:59.280Z,100577.09
2022-09-23T11:32:42.101Z,100578.25
2022-09-23T11:34:00.914Z,100575.75
2022-09-23T11:35:13.135Z,100575.25
2022-09-23T11:36:28.104Z,100565.72
2022-09-23T11:37:35.687Z,100569.34
2022-09-23T11:38:43.052Z,100563.72
2022-09-23T11:39:53.449Z,100561.75
2022-09-23T11:41:02.493Z,100562.59
2022-09-23T11:42:10.910Z,100557.31
2022-09-23T11:43:23.520Z,100561.75
2022-09-23T11:44:37.487Z,100560.13
2022-09-23T11:46:12.264Z,100558.13
2022-09-23T11:47:22.711Z,100560.13
2022-09-23T11:48:41.815Z,100556.78
2022-09-23T11:49:53.543Z,100554.31
2022-09-23T11:51:36.689Z,100557.09
2022-09-23T11:52:58.731Z,100553.28
2022-09-23T11:54:24.555Z,100547.97
2022-09-23T11:55:36.265Z,100549.44
2022-09-23T11:56:48.188Z,100546.97
2022-09-23T11:58:02.665Z,100548.09
2022-09-23T11:59:39.713Z,100545.13
2022-09-23T12:01:00.555Z,100550.19
2022-09-23T12:02:21.172Z,100541.28
2022-09-23T12:03:43.746Z,100546.03
2022-09-23T12:04:58.693Z,100541.91
2022-09-23T12:06:07.829Z,100539.09
2022-09-23T12:07:12.676Z,100536.63
2022-09-23T12:08:28.680Z,100539.44
2022-09-23T12:09:58.953Z,100536.63
2022-09-23T12:11:01.971Z,100533.00
2022-09-23T12:12:27.098Z,100534.44
2022-09-23T12:13:48.482Z,100534.44
2022-09-23T12:14:59.812Z,100530.78
2022-09-23T12:16:23.661Z,100525.19
2022-09-23T12:17:54.595Z,100532.78
2022-09-23T12:18:59.392Z,100520.72
2022-09-23T12:20:23.975Z,100528.31
2022-09-23T12:21:51.077Z,100520.72
2022-09-23T12:23:17.636Z,100534.72
2022-09-23T12:24:52.033Z,100528.63
2022-09-23T12:26:07.933Z,100525.84
2022-09-23T12:27:27.962Z,100526.97
2022-09-23T12:28:44.591Z,100538.16
2022-09-23T12:29:49.631Z,100527.78
2022-09-23T12:30:56.529Z,100521.38
2022-09-23T12:31:59.606Z,100519.38
2022-09-23T12:33:24.840Z,100521.06
2022-09-23T12:34:49.088Z,100521.06
2022-09-23T12:35:54.264Z,100519.91
2022-09-23T12:37:04.161Z,100525.19
2022-09-23T12:38:25.635Z,100518.78
2022-09-23T12:39:31.815Z,100512.03
2022-09-23T12:40:44.031Z,100512.03
2022-09-23T12:42:00.936Z,100512.56
2022-09-23T12:43:03.308Z,100513.41
2022-09-23T12:44:12.643Z,100510.28
2022-09-23T12:45:32.778Z,100511.09
2022-09-23T12:46:35.025Z,100507.16
2022-09-23T12:47:38.993Z,100511.94
2022-09-23T12:48:57.869Z,100508.84
2022-09-23T12:50:01.365Z,100508.84
2022-09-23T12:51:03.453Z,100506.03
2022-09-23T12:52:11.787Z,100507.16
2022-09-23T12:53:32.825Z,100509.16
2022-09-23T12:54:35.026Z,100502.72
2022-09-23T12:55:42.496Z,100502.22
2022-09-23T12:56:58.808Z,100506.97
2022-09-23T12:58:01.044Z,100506.16
2022-09-23T12:59:28.867Z,100506.16
2022-09-23T13:00:34.188Z,100497.50
2022-09-23T13:01:38.268Z,100505.09
2022-09-23T13:02:43.689Z,100504.25
2022-09-23T13:04:08.447Z,100502.91
2022-09-23T13:05:37.771Z,100495.97
2022-09-23T13:06:56.732Z,100495.47
2022-09-23T13:08:03.854Z,100490.19
2022-09-23T13:09:19.191Z,100486.06
2022-09-23T13:10:27.821Z,100488.31
2022-09-23T13:11:31.699Z,100481.38
2022-09-23T13:12:38.988Z,100481.72
2022-09-23T13:13:45.557Z,100483.16
2022-09-23T13:14:51.613Z,100482.97